createdAt,value
2022-08-25T00:01:42.263Z,0.63
2022-08-25T00:04:12.467Z,0.65
2022-08-25T00:06:42.363Z,0.70
2022-08-25T00:09:10.244Z,0.80
2022-08-25T00:11:42.119Z,0.50
2022-08-25T00:16:40.278Z,0.70
2022-08-25T00:19:11.919Z,0.80
2022-08-25T00:21:41.048Z,0.70
2022-08-25T00:24:09.684Z,0.65
2022-08-25T00:26:44.233Z,0.80
2022-08-25T00:29:11.895Z,0.80
2022-08-25T00:31:39.664Z,1.00
2022-08-25T00:34:14.463Z,0.70
2022-08-25T00:36:41.396Z,0.80
2022-08-25T00:39:09.554Z,0.85
2022-08-25T00:41:37.914Z,0.93
2022-08-25T00:44:07.224Z,0.60
2022-08-25T00:46:41.703Z,0.80
2022-08-25T00:49:16.383Z,0.65
2022-08-25T00:52:05.866Z,0.73
2022-08-25T00:54:53.224Z,0.80
2022-08-25T00:57:34.223Z,0.80
2022-08-25T01:00:07.967Z,0.70
2022-08-25T01:02:34.665Z,0.73
2022-08-25T01:05:01.320Z,0.90
2022-08-25T01:07:28.024Z,0.80
2022-08-25T01:09:55.639Z,0.60
2022-08-25T01:12:22.540Z,0.60
2022-08-25T01:14:50.880Z,0.60
2022-08-25T01:17:17.614Z,0.65
2022-08-25T01:19:44.394Z,0.63
2022-08-25T01:22:11.994Z,0.70
2022-08-25T01:24:58.733Z,0.70
2022-08-25T01:27:25.491Z,0.90
2022-08-25T01:29:52.276Z,0.60
2022-08-25T01:32:18.949Z,0.75
2022-08-25T01:34:46.553Z,0.80
2022-08-25T01:37:15.657Z,0.60
2022-08-25T01:39:43.040Z,0.75
2022-08-25T01:42:24.033Z,0.70
2022-08-25T01:44:51.148Z,0.80
2022-08-25T01:47:18.028Z,0.90
2022-08-25T01:49:45.229Z,0.57
2022-08-25T01:52:21.493Z,0.80
2022-08-25T01:54:48.659Z,0.70
2022-08-25T01:57:15.638Z,1.08
2022-08-25T01:59:42.423Z,0.70
2022-08-25T02:02:09.439Z,0.60
2022-08-25T02:04:37.337Z,0.60
2022-08-25T02:07:06.407Z,0.68
2022-08-25T02:11:59.663Z,0.70
2022-08-25T02:14:28.171Z,0.90
2022-08-25T02:16:55.397Z,0.70
2022-08-25T02:19:24.573Z,0.60
2022-08-25T02:21:51.258Z,0.80
2022-08-25T02:24:18.778Z,0.73
2022-08-25T02:26:45.664Z,0.65
2022-08-25T02:29:12.699Z,0.70
2022-08-25T02:31:40.034Z,0.80
2022-08-25T02:34:08.674Z,0.55
2022-08-25T02:36:37.244Z,0.60
2022-08-25T02:39:05.518Z,0.60
2022-08-25T02:41:33.459Z,0.70
2022-08-25T02:44:01.089Z,0.57
2022-08-25T02:46:28.103Z,0.80
2022-08-25T02:48:55.176Z,0.68
2022-08-25T02:51:25.307Z,0.65
2022-08-25T02:53:51.951Z,0.65
2022-08-25T02:56:19.890Z,0.80
2022-08-25T02:58:47.663Z,0.75
2022-08-25T03:01:16.185Z,0.75
2022-08-25T03:03:45.294Z,0.60
2022-08-25T03:06:14.623Z,0.75
2022-08-25T03:08:42.577Z,0.73
2022-08-25T03:11:09.859Z,0.68
2022-08-25T03:13:36.774Z,0.70
2022-08-25T03:16:06.084Z,0.55
2022-08-25T03:18:40.220Z,0.68
2022-08-25T03:21:07.903Z,0.60
2022-08-25T03:23:34.779Z,0.70
2022-08-25T03:26:20.651Z,0.70
2022-08-25T03:28:47.440Z,0.60
2022-08-25T03:31:14.102Z,0.60
2022-08-25T03:33:40.924Z,0.60
2022-08-25T03:36:08.871Z,0.70
2022-08-25T03:38:38.132Z,0.60
2022-08-25T03:41:27.782Z,0.57
2022-08-25T03:43:56.236Z,0.65
2022-08-25T03:46:32.264Z,0.60
2022-08-25T03:49:02.383Z,0.80
2022-08-25T03:51:33.612Z,0.60
2022-08-25T03:54:00.751Z,0.70
2022-08-25T03:56:28.081Z,0.82
2022-08-25T03:58:55.801Z,0.60
2022-08-25T04:01:23.659Z,0.70
2022-08-25T04:03:50.484Z,0.68
2022-08-25T04:06:18.907Z,0.70
2022-08-25T04:08:45.814Z,0.60
2022-08-25T04:11:20.086Z,0.65
2022-08-25T04:13:47.826Z,0.63
2022-08-25T04:16:21.055Z,0.70
2022-08-25T04:18:49.876Z,0.73
2022-08-25T04:21:18.007Z,0.70
2022-08-25T04:23:48.807Z,0.57
2022-08-25T04:26:19.552Z,0.68
2022-08-25T04:28:47.300Z,0.73
2022-08-25T04:31:15.828Z,0.60
2022-08-25T04:33:43.360Z,0.90
2022-08-25T04:36:14.049Z,0.60
2022-08-25T04:38:42.984Z,1.00
2022-08-25T04:41:11.584Z,0.90
2022-08-25T04:43:40.380Z,0.77
2022-08-25T04:46:11.055Z,0.70
2022-08-25T04:48:39.822Z,0.75
2022-08-25T04:51:07.972Z,0.60
2022-08-25T04:53:35.031Z,0.60
2022-08-25T04:56:03.930Z,0.70
2022-08-25T04:58:30.986Z,0.80
2022-08-25T05:01:05.730Z,0.60
2022-08-25T05:03:32.443Z,1.02
2022-08-25T05:05:59.272Z,1.00
2022-08-25T05:10:54.478Z,5.20
2022-08-25T05:13:22.375Z,5.78
2022-08-25T05:15:54.529Z,5.32
2022-08-25T05:20:50.445Z,5.93
2022-08-25T05:23:17.211Z,5.97
2022-08-25T05:25:44.403Z,6.00
2022-08-25T05:28:11.841Z,6.82
2022-08-25T05:30:40.083Z,6.05
2022-08-25T05:33:07.708Z,6.03
2022-08-25T05:35:35.778Z,5.30
2022-08-25T05:38:04.302Z,5.88
2022-08-25T05:40:32.203Z,5.45
2022-08-25T05:42:58.947Z,4.85
2022-08-25T05:45:26.016Z,5.15
2022-08-25T05:47:52.760Z,4.80
2022-08-25T05:50:19.893Z,5.03
2022-08-25T05:52:46.896Z,4.57
2022-08-25T05:55:15.400Z,4.47
2022-08-25T05:57:42.329Z,4.38
2022-08-25T06:00:10.059Z,5.05
2022-08-25T06:02:43.777Z,4.45
2022-08-25T06:05:22.193Z,4.82
2022-08-25T06:07:52.138Z,4.47
2022-08-25T06:10:20.157Z,4.75
2022-08-25T06:12:47.552Z,4.00
2022-08-25T06:15:25.011Z,4.63
2022-08-25T06:17:51.990Z,4.25
2022-08-25T06:20:22.723Z,4.30
2022-08-25T06:22:53.203Z,4.60
2022-08-25T06:25:22.618Z,3.97
2022-08-25T06:27:49.837Z,4.30
2022-08-25T06:30:24.037Z,4.03
2022-08-25T06:32:52.359Z,4.45
2022-08-25T06:35:20.116Z,3.70
2022-08-25T06:37:47.184Z,4.10
2022-08-25T06:40:14.519Z,3.92
2022-08-25T06:42:41.272Z,4.13
2022-08-25T06:45:08.816Z,3.78
2022-08-25T06:47:35.472Z,3.80
2022-08-25T06:50:03.640Z,3.70
2022-08-25T06:52:31.569Z,3.78
2022-08-25T06:54:58.453Z,3.90
2022-08-25T06:57:25.170Z,3.58
2022-08-25T06:59:53.412Z,3.63
2022-08-25T07:02:21.923Z,3.67
2022-08-25T07:04:48.771Z,3.50
2022-08-25T07:07:15.466Z,3.90
2022-08-25T07:09:42.108Z,3.80
2022-08-25T07:12:08.930Z,3.63
2022-08-25T07:14:36.808Z,3.60
2022-08-25T07:17:11.956Z,3.28
2022-08-25T07:19:39.412Z,4.13
2022-08-25T07:22:07.717Z,3.38
2022-08-25T07:24:36.141Z,3.88
2022-08-25T07:27:03.004Z,3.83
2022-08-25T07:29:32.688Z,3.72
2022-08-25T07:32:02.074Z,3.58
2022-08-25T07:34:52.183Z,3.65
2022-08-25T07:37:47.216Z,3.70
2022-08-25T07:40:08.454Z,3.35
2022-08-25T07:42:35.949Z,3.78
2022-08-25T07:45:06.036Z,3.50
2022-08-25T07:47:34.668Z,3.33
2022-08-25T07:50:01.368Z,3.60
2022-08-25T07:52:28.159Z,3.50
2022-08-25T07:54:55.632Z,3.53
2022-08-25T07:57:24.590Z,3.20
2022-08-25T07:59:51.243Z,3.30
2022-08-25T08:02:19.378Z,3.10
2022-08-25T08:04:49.297Z,3.45
2022-08-25T08:07:18.739Z,3.33
2022-08-25T08:09:45.840Z,3.45
2022-08-25T08:12:12.608Z,3.50
2022-08-25T08:14:45.015Z,3.25
2022-08-25T08:17:13.524Z,3.13
2022-08-25T08:19:44.799Z,3.20
2022-08-25T08:22:15.429Z,3.30
2022-08-25T08:24:54.767Z,3.40
2022-08-25T08:27:23.321Z,3.30
2022-08-25T08:29:50.116Z,3.00
2022-08-25T08:32:17.896Z,3.35
2022-08-25T08:34:46.996Z,3.20
2022-08-25T08:37:18.127Z,3.25
2022-08-25T08:39:46.963Z,3.10
2022-08-25T08:42:19.283Z,3.33
2022-08-25T08:44:55.393Z,3.17
2022-08-25T08:48:01.275Z,3.35
2022-08-25T08:50:34.410Z,2.65
2022-08-25T08:53:08.817Z,2.78
2022-08-25T08:55:52.522Z,3.33
2022-08-25T08:58:21.079Z,3.20
2022-08-25T09:00:55.988Z,2.80
2022-08-25T09:03:31.798Z,3.00
2022-08-25T09:06:02.590Z,3.00
2022-08-25T09:08:31.201Z,3.42
2022-08-25T09:11:13.325Z,2.63
2022-08-25T09:13:58.103Z,3.33
2022-08-25T09:16:52.868Z,3.00
2022-08-25T09:19:43.993Z,3.15
2022-08-25T09:22:40.024Z,2.90
2022-08-25T09:25:29.564Z,2.50
2022-08-25T09:28:12.627Z,2.90
2022-08-25T09:30:48.197Z,3.10
2022-08-25T09:33:21.132Z,2.58
2022-08-25T09:35:51.160Z,2.95
2022-08-25T09:40:49.832Z,2.70
2022-08-25T09:43:22.045Z,2.63
2022-08-25T09:46:00.596Z,2.92
2022-08-25T09:48:41.016Z,2.90
2022-08-25T09:51:24.072Z,2.78
2022-08-25T09:54:19.744Z,2.75
2022-08-25T09:57:02.026Z,2.72
2022-08-25T09:59:35.757Z,2.67
2022-08-25T10:02:25.379Z,2.67
2022-08-25T10:04:53.064Z,2.65
2022-08-25T10:07:25.805Z,2.75
2022-08-25T10:09:59.752Z,2.70
2022-08-25T10:12:42.811Z,2.30
2022-08-25T10:15:29.393Z,2.58
2022-08-25T10:18:17.767Z,2.45
2022-08-25T10:20:45.010Z,2.60
2022-08-25T10:23:14.191Z,2.85
2022-08-25T10:25:57.772Z,2.60
2022-08-25T10:28:43.401Z,2.33
2022-08-25T10:31:38.759Z,2.60
2022-08-25T10:34:32.799Z,2.63
2022-08-25T10:37:05.529Z,2.85
2022-08-25T10:39:40.601Z,2.90
2022-08-25T10:42:29.341Z,2.53
2022-08-25T10:45:30.800Z,2.40
2022-08-25T10:48:22.316Z,2.30
2022-08-25T10:51:03.283Z,2.70
2022-08-25T10:53:42.447Z,2.88
2022-08-25T10:56:23.304Z,2.58
2022-08-25T10:58:55.846Z,2.80
2022-08-25T11:01:36.669Z,2.35
2022-08-25T11:04:47.272Z,2.42
2022-08-25T11:07:28.779Z,2.50
2022-08-25T11:10:02.699Z,2.50
2022-08-25T11:12:43.565Z,2.50
2022-08-25T11:15:34.060Z,2.50
2022-08-25T11:18:13.941Z,2.60
2022-08-25T11:20:59.657Z,2.40
2022-08-25T11:23:31.108Z,2.30
2022-08-25T11:26:08.922Z,2.47
2022-08-25T11:29:05.464Z,2.60
2022-08-25T11:31:42.206Z,2.28
2022-08-25T11:34:16.352Z,2.38
2022-08-25T11:37:01.010Z,2.30
2022-08-25T11:39:34.716Z,2.17
2022-08-25T11:42:27.028Z,2.67
2022-08-25T11:45:42.265Z,2.35
2022-08-25T11:48:17.920Z,2.35
2022-08-25T11:51:04.887Z,2.13
2022-08-25T11:53:34.028Z,2.10
2022-08-25T11:56:12.387Z,2.40
2022-08-25T11:58:51.676Z,2.20
2022-08-25T12:01:40.283Z,2.40
2022-08-25T12:04:15.999Z,2.00
2022-08-25T12:07:11.226Z,2.30
2022-08-25T12:09:50.222Z,2.60
2022-08-25T12:12:35.815Z,2.60
2022-08-25T12:15:23.494Z,2.17
2022-08-25T12:18:11.243Z,2.50
2022-08-25T12:20:59.999Z,2.30
2022-08-25T12:23:45.043Z,2.10
2022-08-25T12:26:34.735Z,2.03
2022-08-25T12:29:16.462Z,2.00
2022-08-25T12:31:59.190Z,2.05
2022-08-25T12:35:08.853Z,2.05
2022-08-25T12:37:53.185Z,2.15
2022-08-25T12:40:29.375Z,2.30
2022-08-25T12:43:08.963Z,2.25
2022-08-25T12:45:39.292Z,1.90
2022-08-25T12:48:27.354Z,2.10
2022-08-25T12:51:06.284Z,2.10
2022-08-25T12:53:39.863Z,2.55
2022-08-25T12:56:27.562Z,2.10
2022-08-25T12:59:07.182Z,2.05
2022-08-25T13:01:43.490Z,2.05
2022-08-25T13:04:17.423Z,2.00
2022-08-25T13:07:09.623Z,2.05
2022-08-25T13:10:07.645Z,2.33
2022-08-25T13:12:46.515Z,2.00
2022-08-25T13:15:41.091Z,2.00
2022-08-25T13:18:27.817Z,2.20
2022-08-25T13:21:30.555Z,2.10
2022-08-25T13:24:01.456Z,1.90
2022-08-25T13:26:37.511Z,2.25
2022-08-25T13:32:14.409Z,1.98
2022-08-25T13:34:43.174Z,1.73
2022-08-25T13:37:30.390Z,1.88
2022-08-25T13:40:20.103Z,1.95
2022-08-25T13:42:57.495Z,1.80
2022-08-25T13:45:28.286Z,1.98
2022-08-25T13:47:57.138Z,1.90
2022-08-25T13:50:27.252Z,1.80
2022-08-25T13:52:53.927Z,1.88
2022-08-25T13:55:50.662Z,2.00
2022-08-25T13:58:24.291Z,1.88
2022-08-25T14:01:23.598Z,1.77
2022-08-25T14:04:38.264Z,2.00
2022-08-25T14:07:20.733Z,1.80
2022-08-25T14:10:09.391Z,1.90
2022-08-25T14:12:46.227Z,1.80
2022-08-25T14:15:20.024Z,1.90
2022-08-25T14:18:03.455Z,1.80
2022-08-25T14:20:33.335Z,1.80
2022-08-25T14:23:09.997Z,1.95
2022-08-25T14:25:37.445Z,1.65
2022-08-25T14:30:46.271Z,1.70
2022-08-25T14:33:14.691Z,1.80
2022-08-25T14:35:45.308Z,1.70
2022-08-25T14:38:14.520Z,2.03
2022-08-25T14:40:41.849Z,2.25
2022-08-25T14:43:09.558Z,1.77
2022-08-25T14:45:39.234Z,1.70
2022-08-25T14:48:10.354Z,1.88
2022-08-25T14:50:37.989Z,1.90
2022-08-25T14:53:08.326Z,1.63
2022-08-25T14:55:35.071Z,1.85
2022-08-25T14:58:02.268Z,1.65
2022-08-25T15:00:29.119Z,1.83
2022-08-25T15:02:55.965Z,1.90
2022-08-25T15:05:28.419Z,1.85
2022-08-25T15:08:14.039Z,2.05
2022-08-25T15:10:41.561Z,2.00
2022-08-25T15:13:10.281Z,2.03
2022-08-25T15:15:52.414Z,1.77
2022-08-25T15:18:20.941Z,2.00
2022-08-25T15:20:50.192Z,2.00
2022-08-25T15:23:18.473Z,2.80
2022-08-25T15:25:47.864Z,2.33
2022-08-25T15:28:17.307Z,2.42
2022-08-25T15:30:45.898Z,3.08
2022-08-25T15:33:13.539Z,3.28
2022-08-25T15:35:40.965Z,3.00
2022-08-25T15:38:08.145Z,3.70
2022-08-25T15:40:37.412Z,5.80
2022-08-25T15:43:05.616Z,5.72
2022-08-25T15:45:35.726Z,7.75
2022-08-25T15:48:02.520Z,18.23
2022-08-25T15:50:30.163Z,18.65
2022-08-25T15:52:56.856Z,19.92
2022-08-25T15:55:23.615Z,20.52
2022-08-25T15:57:50.710Z,21.33
2022-08-25T16:00:18.335Z,22.48
2022-08-25T16:02:45.395Z,23.17
2022-08-25T16:05:13.671Z,23.42
2022-08-25T16:07:42.820Z,24.30
2022-08-25T16:10:10.331Z,24.67
2022-08-25T16:12:39.931Z,24.58
2022-08-25T16:15:10.131Z,25.42
2022-08-25T16:17:40.525Z,26.27
2022-08-25T16:20:12.654Z,25.92
2022-08-25T16:22:41.064Z,26.60
2022-08-25T16:25:08.659Z,27.73
2022-08-25T16:27:38.613Z,27.55
2022-08-25T16:30:07.282Z,28.52
2022-08-25T16:32:34.737Z,28.15
2022-08-25T16:35:03.106Z,29.90
2022-08-25T16:37:30.060Z,30.40
2022-08-25T16:39:57.354Z,30.60
2022-08-25T16:42:24.607Z,31.05
2022-08-25T16:44:53.991Z,32.97
2022-08-25T16:47:25.103Z,32.25
2022-08-25T16:49:54.062Z,32.55
2022-08-25T16:52:40.618Z,32.13
2022-08-25T16:55:15.032Z,32.30
2022-08-25T16:57:48.014Z,31.80
2022-08-25T17:00:19.347Z,32.42
2022-08-25T17:02:46.084Z,35.50
2022-08-25T17:05:14.576Z,36.33
2022-08-25T17:07:41.570Z,36.25
2022-08-25T17:10:12.684Z,37.22
2022-08-25T17:12:39.590Z,39.72
2022-08-25T17:15:07.648Z,38.03
2022-08-25T17:17:36.237Z,39.20
2022-08-25T17:20:04.619Z,39.00
2022-08-25T17:22:31.742Z,38.75
2022-08-25T17:24:59.118Z,40.42
2022-08-25T17:27:27.949Z,39.08
2022-08-25T17:29:54.591Z,38.88
2022-08-25T17:32:23.127Z,39.90
2022-08-25T17:34:57.413Z,39.78
2022-08-25T17:37:24.732Z,37.45
2022-08-25T17:40:02.575Z,40.97
2022-08-25T17:42:30.529Z,42.20
2022-08-25T17:44:58.221Z,40.75
2022-08-25T17:47:24.995Z,41.28
2022-08-25T17:49:51.663Z,41.72
2022-08-25T17:52:20.688Z,40.42
2022-08-25T17:54:49.239Z,41.75
2022-08-25T17:57:16.125Z,42.35
2022-08-25T17:59:42.864Z,43.40
2022-08-25T18:02:09.704Z,42.13
2022-08-25T18:04:39.242Z,42.60
2022-08-25T18:07:06.736Z,41.92
2022-08-25T18:09:33.604Z,44.60
2022-08-25T18:12:00.324Z,42.65
2022-08-25T18:14:27.074Z,44.67
2022-08-25T18:16:54.252Z,42.42
2022-08-25T18:19:21.201Z,42.75
2022-08-25T18:21:47.994Z,43.67
2022-08-25T18:24:14.799Z,43.92
2022-08-25T18:26:41.649Z,42.97
2022-08-25T18:29:12.015Z,44.33
2022-08-25T18:31:41.660Z,43.53
2022-08-25T18:34:11.053Z,42.13
2022-08-25T18:36:38.799Z,44.08
2022-08-25T18:39:25.067Z,42.60
2022-08-25T18:41:51.701Z,44.03
2022-08-25T18:44:18.433Z,45.42
2022-08-25T18:46:45.467Z,44.42
2022-08-25T18:49:15.784Z,44.80
2022-08-25T18:51:44.309Z,45.90
2022-08-25T18:54:22.825Z,60.25
2022-08-25T18:56:50.704Z,61.20
2022-08-25T18:59:19.051Z,64.57
2022-08-25T19:01:45.890Z,63.53
2022-08-25T19:04:14.712Z,62.30
2022-08-25T19:06:43.748Z,60.05
2022-08-25T19:09:11.011Z,61.33
2022-08-25T19:11:38.621Z,61.00
2022-08-25T19:14:12.222Z,59.53
2022-08-25T19:16:42.353Z,60.35
2022-08-25T19:19:13.069Z,59.50
2022-08-25T19:21:43.039Z,59.45
2022-08-25T19:24:12.245Z,59.15
2022-08-25T19:26:39.299Z,57.30
2022-08-25T19:29:12.424Z,52.15
2022-08-25T19:31:41.695Z,54.17
2022-08-25T19:34:12.071Z,56.28
2022-08-25T19:36:38.876Z,52.10
2022-08-25T19:39:08.543Z,53.95
2022-08-25T19:41:35.322Z,53.05
2022-08-25T19:44:03.032Z,52.20
2022-08-25T19:46:35.789Z,51.45
2022-08-25T19:49:09.248Z,51.08
2022-08-25T19:51:41.291Z,51.80
2022-08-25T19:54:13.784Z,52.25
2022-08-25T19:56:43.844Z,50.53
2022-08-25T19:59:24.596Z,49.10
2022-08-25T20:01:51.398Z,51.17
2022-08-25T20:04:18.134Z,48.42
2022-08-25T20:06:48.297Z,49.22
2022-08-25T20:09:21.125Z,48.75
2022-08-25T20:12:03.741Z,47.67
2022-08-25T20:14:33.839Z,49.35
2022-08-25T20:17:01.691Z,47.63
2022-08-25T20:19:30.416Z,47.47
2022-08-25T20:21:57.123Z,46.95
2022-08-25T20:24:49.830Z,46.40
2022-08-25T20:27:25.689Z,45.95
2022-08-25T20:29:52.950Z,45.13
2022-08-25T20:32:20.045Z,43.92
2022-08-25T20:34:47.115Z,44.53
2022-08-25T20:37:14.215Z,45.55
2022-08-25T20:39:41.531Z,42.67
2022-08-25T20:42:08.343Z,43.70
2022-08-25T20:44:40.045Z,42.40
2022-08-25T20:47:10.437Z,43.97
2022-08-25T20:49:39.476Z,43.17
2022-08-25T20:52:07.631Z,42.25
2022-08-25T20:54:34.495Z,41.60
2022-08-25T20:57:02.571Z,42.33
2022-08-25T20:59:29.515Z,42.50
2022-08-25T21:01:56.321Z,40.17
2022-08-25T21:04:26.591Z,39.33
2022-08-25T21:06:53.489Z,39.60
2022-08-25T21:09:22.947Z,39.10
2022-08-25T21:11:53.243Z,38.42
2022-08-25T21:14:21.028Z,37.78
2022-08-25T21:16:48.534Z,38.20
2022-08-25T21:19:17.748Z,37.83
2022-08-25T21:21:54.440Z,36.17
2022-08-25T21:24:27.829Z,36.40
2022-08-25T21:26:56.389Z,35.10
2022-08-25T21:29:24.656Z,26.17
2022-08-25T21:31:51.635Z,12.90
2022-08-25T21:34:18.879Z,8.50
2022-08-25T21:36:46.521Z,6.63
2022-08-25T21:39:14.332Z,6.00
2022-08-25T21:41:44.092Z,5.32
2022-08-25T21:44:13.082Z,6.45
2022-08-25T21:46:41.323Z,6.70
2022-08-25T21:49:08.651Z,6.90
2022-08-25T21:51:41.159Z,6.35
2022-08-25T21:54:11.293Z,5.95
2022-08-25T21:56:44.409Z,6.00
2022-08-25T21:59:14.916Z,5.82
2022-08-25T22:01:42.852Z,6.15
2022-08-25T22:04:11.560Z,6.20
2022-08-25T22:06:38.364Z,6.53
2022-08-25T22:09:07.654Z,6.45
2022-08-25T22:11:36.230Z,6.15
2022-08-25T22:14:04.474Z,6.60
2022-08-25T22:16:32.913Z,5.88
2022-08-25T22:18:59.842Z,6.53
2022-08-25T22:21:28.739Z,6.15
2022-08-25T22:23:58.651Z,5.70
2022-08-25T22:26:28.980Z,5.43
2022-08-25T22:28:57.826Z,6.60
2022-08-25T22:31:25.161Z,5.95
2022-08-25T22:33:52.261Z,5.72
2022-08-25T22:36:20.487Z,5.70
2022-08-25T22:38:48.021Z,6.18
2022-08-25T22:41:21.548Z,5.55
2022-08-25T22:43:52.989Z,5.38
2022-08-25T22:46:21.528Z,5.70
2022-08-25T22:48:50.275Z,5.65
2022-08-25T22:51:25.261Z,5.40
2022-08-25T22:53:53.078Z,5.72
2022-08-25T22:56:32.661Z,5.80
2022-08-25T22:59:03.081Z,5.63
2022-08-25T23:01:31.811Z,5.65
2022-08-25T23:04:00.668Z,5.47
2022-08-25T23:06:29.336Z,5.47
2022-08-25T23:08:56.314Z,5.65
2022-08-25T23:11:24.381Z,5.68
2022-08-25T23:13:53.953Z,5.55
2022-08-25T23:16:22.702Z,5.25
2022-08-25T23:18:49.716Z,5.00
2022-08-25T23:21:35.080Z,5.32
2022-08-25T23:24:05.627Z,4.78
2022-08-25T23:26:36.311Z,5.50
2022-08-25T23:29:03.326Z,5.68
2022-08-25T23:31:44.932Z,5.32
2022-08-25T23:34:11.778Z,5.10
2022-08-25T23:36:40.144Z,5.30
2022-08-25T23:39:07.794Z,4.90
2022-08-25T23:41:36.913Z,5.13
2022-08-25T23:44:05.578Z,4.60
2022-08-25T23:46:34.768Z,4.82
2022-08-25T23:49:03.329Z,5.07
2022-08-25T23:51:34.040Z,4.82
2022-08-25T23:54:09.553Z,4.97
2022-08-25T23:56:42.268Z,5.50
2022-08-25T23:59:12.874Z,5.53
